Time;durP1;ratioP1;P1;durP2;ratioP2;P2;SDS_P1;SDS_P2;PMS_P1;PMS_P2;Temp;Humidity;BMP_temperature;BMP_pressure;BME280_temperature;BME280_humidity;BME280_pressure;Samples;Min_cycle;Max_cycle;Signal;HPM_P1;HPM_P2
2022/07/19 00:00:09;;;;;;;9.98;3.97;;;17.90;99.90;;;;;;5068558;28;20052;-66
2022/07/19 00:02:35;;;;;;;8.60;3.60;;;17.90;99.90;;;;;;5070065;28;20036;-66
2022/07/19 00:05:02;;;;;;;8.50;3.70;;;17.90;99.90;;;;;;5052028;28;20044;-66
2022/07/19 00:07:28;;;;;;;10.38;4.00;;;17.90;99.90;;;;;;5067228;28;20369;-66
2022/07/19 00:09:54;;;;;;;12.75;3.97;;;17.80;99.90;;;;;;5066629;28;20047;-66
2022/07/19 00:12:20;;;;;;;8.95;3.78;;;17.80;99.90;;;;;;5044852;28;20032;-66
2022/07/19 00:14:46;;;;;;;9.98;4.13;;;17.90;99.90;;;;;;5070986;28;20020;-66
2022/07/19 00:17:11;;;;;;;9.95;3.97;;;17.90;99.90;;;;;;5065435;28;20396;-66
2022/07/19 00:19:37;;;;;;;7.80;3.70;;;17.90;99.90;;;;;;5069802;28;20062;-66
2022/07/19 00:22:03;;;;;;;8.95;3.95;;;18.00;99.90;;;;;;5067364;28;20433;-66
2022/07/19 00:24:28;;;;;;;9.88;3.88;;;17.90;99.90;;;;;;5069832;28;20040;-66
2022/07/19 00:26:54;;;;;;;10.32;3.78;;;17.90;99.90;;;;;;5066691;28;20418;-66
2022/07/19 00:29:19;;;;;;;7.55;3.63;;;17.80;99.90;;;;;;5046966;28;20033;-66
2022/07/19 00:31:45;;;;;;;11.25;3.83;;;17.80;99.90;;;;;;5070865;28;20084;-66
2022/07/19 00:34:11;;;;;;;10.40;3.78;;;17.70;99.90;;;;;;5069643;28;20389;-66
2022/07/19 00:36:36;;;;;;;7.75;3.50;;;17.60;99.90;;;;;;5052689;28;20370;-66
2022/07/19 00:39:02;;;;;;;7.88;3.63;;;17.50;99.90;;;;;;5070023;28;20480;-66
2022/07/19 00:41:28;;;;;;;10.15;3.63;;;17.50;99.90;;;;;;5069314;28;20028;-66
2022/07/19 00:43:55;;;;;;;9.30;3.75;;;17.50;99.90;;;;;;5067921;28;20040;-66
2022/07/19 00:46:21;;;;;;;7.57;3.58;;;17.50;99.90;;;;;;5070396;28;20103;-66
2022/07/19 00:48:49;;;;;;;8.30;3.75;;;17.50;99.90;;;;;;5067683;28;20444;-66
2022/07/19 00:51:17;;;;;;;8.90;3.85;;;17.50;99.90;;;;;;5070984;28;20035;-66
2022/07/19 00:53:43;;;;;;;8.95;4.00;;;17.50;99.90;;;;;;5069777;28;20029;-66
2022/07/19 00:56:11;;;;;;;9.07;3.72;;;17.40;99.90;;;;;;5068429;28;20044;-66
2022/07/19 00:58:38;;;;;;;9.20;3.80;;;17.30;99.90;;;;;;5068098;28;20029;-66
2022/07/19 01:01:06;;;;;;;9.63;3.78;;;17.30;99.90;;;;;;5068595;28;20041;-66
2022/07/19 01:03:35;;;;;;;9.18;3.67;;;17.20;99.90;;;;;;5063960;28;20033;-66
2022/07/19 01:06:00;;;;;;;9.30;3.45;;;17.20;99.90;;;;;;5070492;28;20082;-66
2022/07/19 01:08:26;;;;;;;9.60;3.70;;;17.10;99.90;;;;;;5043961;28;20021;-66
2022/07/19 01:10:52;;;;;;;8.73;4.07;;;17.10;99.90;;;;;;5066491;28;20043;-66
2022/07/19 01:13:18;;;;;;;10.25;4.13;;;17.10;99.90;;;;;;5050087;28;20664;-66
2022/07/19 01:15:43;;;;;;;9.13;3.97;;;17.00;99.90;;;;;;5068978;28;20025;-66
2022/07/19 01:18:10;;;;;;;9.98;4.00;;;17.00;99.90;;;;;;5071691;28;20126;-66
2022/07/19 01:20:36;;;;;;;8.23;3.83;;;17.10;99.90;;;;;;5066136;28;20595;-66
2022/07/19 01:23:02;;;;;;;8.82;3.90;;;17.10;99.90;;;;;;5068888;28;20036;-66
2022/07/19 01:25:32;;;;;;;7.88;3.90;;;17.20;99.90;;;;;;5051488;28;20025;-66
2022/07/19 01:27:58;;;;;;;8.70;3.47;;;17.30;99.90;;;;;;5051692;28;20032;-66
2022/07/19 01:30:26;;;;;;;8.98;3.40;;;17.30;99.90;;;;;;5067992;28;20440;-66
2022/07/19 01:32:52;;;;;;;8.80;3.60;;;17.20;99.90;;;;;;5066824;28;20016;-66
2022/07/19 01:35:19;;;;;;;9.60;3.95;;;17.20;99.90;;;;;;5064766;28;20017;-66
2022/07/19 01:37:45;;;;;;;11.30;4.18;;;17.10;99.90;;;;;;5049141;28;20568;-66
2022/07/19 01:40:12;;;;;;;9.07;3.83;;;17.20;99.90;;;;;;5049656;28;20031;-66
2022/07/19 01:42:39;;;;;;;9.32;3.55;;;17.10;99.90;;;;;;5066155;28;20028;-66
2022/07/19 01:45:06;;;;;;;10.32;3.55;;;17.20;99.90;;;;;;5067933;28;20024;-66
2022/07/19 01:47:32;;;;;;;7.30;3.45;;;17.20;99.90;;;;;;5049922;28;20517;-66
2022/07/19 01:49:58;;;;;;;10.10;3.95;;;17.20;99.90;;;;;;5070108;28;20035;-66
2022/07/19 01:52:23;;;;;;;7.93;3.70;;;17.10;99.90;;;;;;5069409;28;20029;-66
2022/07/19 01:54:49;;;;;;;8.25;3.83;;;17.00;99.90;;;;;;5047045;28;20032;-66
2022/07/19 01:57:14;;;;;;;8.77;3.60;;;17.00;99.90;;;;;;5069550;28;20021;-66
2022/07/19 01:59:40;;;;;;;11.90;4.00;;;17.00;99.90;;;;;;5071306;28;20589;-66
2022/07/19 02:02:06;;;;;;;10.35;4.25;;;17.00;99.90;;;;;;5067275;28;20033;-66
2022/07/19 02:04:32;;;;;;;8.70;3.50;;;17.00;99.90;;;;;;5070338;28;20482;-66
2022/07/19 02:06:58;;;;;;;10.93;3.75;;;16.90;99.90;;;;;;5066656;28;20033;-66
2022/07/19 02:09:24;;;;;;;10.90;3.53;;;16.90;99.90;;;;;;5052927;28;20025;-66
2022/07/19 02:11:49;;;;;;;8.02;3.97;;;16.90;99.90;;;;;;5045248;28;20024;-66
2022/07/19 02:14:15;;;;;;;8.68;3.33;;;16.80;99.90;;;;;;5070230;28;20051;-66
2022/07/19 02:16:41;;;;;;;8.93;3.38;;;17.00;99.90;;;;;;5069935;28;20035;-66
2022/07/19 02:19:07;;;;;;;13.02;3.50;;;17.00;99.90;;;;;;5067684;28;20024;-66
2022/07/19 02:21:34;;;;;;;8.18;3.67;;;17.00;99.90;;;;;;5070058;28;20059;-67
2022/07/19 02:24:00;;;;;;;7.65;3.63;;;16.80;99.90;;;;;;5070449;28;20040;-66
2022/07/19 02:26:25;;;;;;;7.57;3.60;;;16.80;99.90;;;;;;5067170;28;20029;-66
2022/07/19 02:28:51;;;;;;;7.28;3.47;;;16.70;99.90;;;;;;5044156;28;20020;-66
2022/07/19 02:31:17;;;;;;;10.57;3.70;;;16.70;99.90;;;;;;5069892;28;20055;-66
2022/07/19 02:33:43;;;;;;;10.15;3.83;;;16.70;99.90;;;;;;5070563;28;20070;-66
2022/07/19 02:36:08;;;;;;;7.40;3.33;;;16.80;99.90;;;;;;5068491;28;20020;-66
2022/07/19 02:38:34;;;;;;;9.48;3.40;;;16.80;99.90;;;;;;5074810;28;20078;-66
2022/07/19 02:41:00;;;;;;;10.30;4.10;;;16.80;99.90;;;;;;5073959;28;20044;-66
2022/07/19 02:43:26;;;;;;;8.85;3.60;;;16.80;99.90;;;;;;5053383;28;20495;-67
2022/07/19 02:45:52;;;;;;;8.05;3.60;;;16.80;99.90;;;;;;5074103;28;20028;-66
2022/07/19 02:48:18;;;;;;;9.13;4.00;;;16.80;99.90;;;;;;5073195;28;20032;-66
2022/07/19 02:50:44;;;;;;;8.77;3.53;;;16.70;99.90;;;;;;5052759;28;20040;-66
2022/07/19 02:53:10;;;;;;;9.52;3.83;;;16.70;99.90;;;;;;5070618;28;20044;-66
2022/07/19 02:55:36;;;;;;;7.30;3.55;;;16.80;99.90;;;;;;5057019;28;20111;-66
2022/07/19 02:58:02;;;;;;;10.10;3.70;;;16.80;99.90;;;;;;5074589;28;20025;-65
2022/07/19 03:00:27;;;;;;;7.75;3.60;;;16.90;99.90;;;;;;5075252;28;20040;-65
2022/07/19 03:02:53;;;;;;;10.90;3.60;;;17.00;99.90;;;;;;5057234;28;20020;-65
2022/07/19 03:05:19;;;;;;;8.65;3.35;;;17.20;99.90;;;;;;5057062;28;20388;-66
2022/07/19 03:07:45;;;;;;;10.13;3.50;;;17.30;99.90;;;;;;5056560;28;20491;-66
2022/07/19 03:10:11;;;;;;;10.05;3.70;;;17.40;99.90;;;;;;5073652;28;20107;-66
2022/07/19 03:12:36;;;;;;;8.23;3.47;;;17.50;99.90;;;;;;5069805;28;20025;-65
2022/07/19 03:15:03;;;;;;;10.50;3.35;;;17.50;99.90;;;;;;5076200;28;20025;-65
2022/07/19 03:17:28;;;;;;;7.78;3.40;;;17.60;99.90;;;;;;5073656;28;20341;-65
2022/07/19 03:19:54;;;;;;;8.25;3.15;;;17.70;99.90;;;;;;5075229;28;20013;-65
2022/07/19 03:22:20;;;;;;;16.88;4.43;;;17.70;99.90;;;;;;5069394;28;20108;-65
2022/07/19 03:24:45;;;;;;;12.60;3.60;;;18.00;99.90;;;;;;5071123;28;20577;-65
2022/07/19 03:27:11;;;;;;;7.30;2.88;;;18.40;99.90;;;;;;5059655;28;20147;-65
2022/07/19 03:29:37;;;;;;;8.55;3.22;;;18.80;99.90;;;;;;5077433;28;20054;-65
2022/07/19 03:32:02;;;;;;;7.78;3.20;;;19.00;99.90;;;;;;5077512;28;20792;-65
2022/07/19 03:34:28;;;;;;;7.78;3.17;;;19.10;99.90;;;;;;5059814;28;20047;-65
2022/07/19 03:36:55;;;;;;;8.50;3.30;;;19.20;99.90;;;;;;5072086;28;20525;-65
2022/07/19 03:39:21;;;;;;;9.88;3.28;;;19.30;99.90;;;;;;5051096;28;20021;-65
2022/07/19 03:41:46;;;;;;;7.65;3.30;;;19.30;99.90;;;;;;5073574;28;20039;-67
2022/07/19 03:44:12;;;;;;;9.90;3.60;;;19.20;99.90;;;;;;5074986;28;20032;-65
2022/07/19 03:46:38;;;;;;;9.40;3.33;;;19.30;99.90;;;;;;5051117;28;20032;-66
2022/07/19 03:49:03;;;;;;;10.35;3.30;;;19.10;99.90;;;;;;5075180;28;20029;-66
2022/07/19 03:51:29;;;;;;;8.52;3.22;;;18.90;99.90;;;;;;5056162;28;20025;-66
2022/07/19 03:53:55;;;;;;;9.13;3.40;;;18.60;99.90;;;;;;5073335;28;20017;-65
2022/07/19 03:56:21;;;;;;;8.85;3.53;;;18.40;99.90;;;;;;5075523;28;20029;-66
2022/07/19 03:58:48;;;;;;;9.10;3.50;;;18.30;99.90;;;;;;5076906;28;20024;-66
2022/07/19 04:01:15;;;;;;;9.05;3.42;;;18.20;99.90;;;;;;5055788;28;20112;-66
2022/07/19 04:03:41;;;;;;;8.68;3.25;;;18.10;99.90;;;;;;5074734;28;20097;-66
2022/07/19 04:06:07;;;;;;;11.43;3.40;;;18.00;99.90;;;;;;5075954;28;20364;-66
2022/07/19 04:08:33;;;;;;;9.40;3.75;;;17.90;99.90;;;;;;5072893;28;20027;-66
2022/07/19 04:10:59;;;;;;;10.32;3.45;;;17.80;99.90;;;;;;5073783;28;20071;-66
2022/07/19 04:13:25;;;;;;;8.23;3.40;;;17.70;99.90;;;;;;5047283;28;20048;-66
2022/07/19 04:15:50;;;;;;;9.40;3.67;;;17.80;99.90;;;;;;5070868;28;20067;-66
2022/07/19 04:18:16;;;;;;;7.93;3.25;;;17.70;99.90;;;;;;5074231;28;20032;-66
2022/07/19 04:20:42;;;;;;;7.63;3.28;;;17.70;99.90;;;;;;5075562;28;20032;-65
2022/07/19 04:23:08;;;;;;;9.82;3.40;;;17.60;99.90;;;;;;5054190;28;20024;-66
2022/07/19 04:25:34;;;;;;;7.20;3.13;;;17.70;99.90;;;;;;5049735;28;20077;-66
2022/07/19 04:27:59;;;;;;;11.80;3.60;;;17.80;99.90;;;;;;5073427;28;20424;-66
2022/07/19 04:30:25;;;;;;;9.27;3.88;;;17.80;99.90;;;;;;5073195;28;20024;-66
2022/07/19 04:32:51;;;;;;;8.25;3.40;;;18.10;99.90;;;;;;5053626;28;20029;-66
2022/07/19 04:35:16;;;;;;;9.15;3.67;;;18.30;99.90;;;;;;5076179;28;20075;-66
2022/07/19 04:37:42;;;;;;;8.00;3.33;;;18.30;99.90;;;;;;5072931;28;20070;-65
2022/07/19 04:40:09;;;;;;;10.90;3.70;;;18.40;99.90;;;;;;5072565;28;20043;-65
2022/07/19 04:42:35;;;;;;;9.45;3.60;;;18.50;99.90;;;;;;5053992;28;20536;-65
2022/07/19 04:45:00;;;;;;;8.63;3.20;;;18.60;99.90;;;;;;5071283;28;20107;-65
2022/07/19 04:47:26;;;;;;;9.43;3.20;;;18.80;99.90;;;;;;5051818;28;20033;-66
2022/07/19 04:49:52;;;;;;;8.60;3.30;;;18.90;99.90;;;;;;5069173;28;20167;-65
2022/07/19 04:52:17;;;;;;;7.95;3.20;;;19.00;99.90;;;;;;5070249;28;20032;-65
2022/07/19 04:54:43;;;;;;;8.75;2.97;;;19.20;99.90;;;;;;5069057;28;20048;-65
2022/07/19 04:57:09;;;;;;;8.00;3.17;;;19.50;99.90;;;;;;5070834;28;20088;-65
2022/07/19 04:59:34;;;;;;;9.75;3.15;;;19.80;99.90;;;;;;5072215;28;20068;-65
2022/07/19 05:02:00;;;;;;;10.48;3.00;;;20.00;99.90;;;;;;5072969;28;20048;-65
2022/07/19 05:04:25;;;;;;;10.57;3.00;;;20.10;99.90;;;;;;5073034;28;20552;-66
2022/07/19 05:06:56;;;;;;;8.40;3.17;;;20.30;99.90;;;;;;5072338;28;20104;-65
2022/07/19 05:09:23;;;;;;;7.97;2.90;;;20.40;99.90;;;;;;5069914;28;20024;-65
2022/07/19 05:11:49;;;;;;;8.35;3.17;;;20.60;99.90;;;;;;5046757;28;20020;-65
2022/07/19 05:14:15;;;;;;;9.93;3.50;;;20.70;99.90;;;;;;5050850;28;20522;-65
2022/07/19 05:16:40;;;;;;;8.93;2.70;;;20.70;99.70;;;;;;5068805;28;20035;-66
2022/07/19 05:19:06;;;;;;;7.88;2.90;;;20.90;99.00;;;;;;5068307;28;20028;-65
2022/07/19 05:21:32;;;;;;;8.05;3.05;;;21.00;98.80;;;;;;5068461;28;20463;-65
2022/07/19 05:23:58;;;;;;;8.77;3.22;;;21.00;98.60;;;;;;5045491;28;20111;-66
2022/07/19 05:26:23;;;;;;;8.60;3.00;;;21.20;98.60;;;;;;5065530;28;20055;-65
2022/07/19 05:28:49;;;;;;;11.63;3.20;;;21.20;98.30;;;;;;5047720;28;20408;-66
2022/07/19 05:31:15;;;;;;;8.05;3.13;;;21.30;98.00;;;;;;5066111;28;20052;-65
2022/07/19 05:33:41;;;;;;;8.30;3.00;;;21.40;97.80;;;;;;5064732;28;20059;-65
2022/07/19 05:36:10;;;;;;;9.70;3.13;;;21.50;97.80;;;;;;5060837;28;20365;-65
2022/07/19 05:38:39;;;;;;;8.43;3.03;;;21.60;97.40;;;;;;5036861;28;20483;-65
2022/07/19 05:41:06;;;;;;;10.45;3.10;;;21.80;97.50;;;;;;5066994;28;20085;-65
2022/07/19 05:43:31;;;;;;;8.63;3.13;;;21.80;97.10;;;;;;5036623;28;20064;-65
2022/07/19 05:45:57;;;;;;;7.95;3.20;;;22.00;96.50;;;;;;5065987;28;20353;-65
2022/07/19 05:48:23;;;;;;;8.25;2.97;;;22.10;96.70;;;;;;5046836;28;20028;-65
2022/07/19 05:50:48;;;;;;;10.05;2.85;;;22.20;96.30;;;;;;5063547;28;20437;-65
2022/07/19 05:53:17;;;;;;;8.07;3.13;;;22.20;96.10;;;;;;5062483;28;20035;-64
2022/07/19 05:55:43;;;;;;;10.40;3.00;;;22.40;96.30;;;;;;5063585;28;20054;-65
2022/07/19 05:58:08;;;;;;;9.07;3.08;;;22.40;95.60;;;;;;5061518;28;20114;-65
2022/07/19 06:00:34;;;;;;;10.35;3.10;;;22.60;95.70;;;;;;5044673;28;20080;-66
2022/07/19 06:03:00;;;;;;;8.38;3.00;;;22.70;95.70;;;;;;5062642;28;20227;-66
2022/07/19 06:05:25;;;;;;;8.77;2.90;;;22.80;96.20;;;;;;5044604;28;20125;-66
2022/07/19 06:07:51;;;;;;;8.63;3.00;;;22.80;95.40;;;;;;5060286;28;20035;-66
2022/07/19 06:10:17;;;;;;;11.68;3.05;;;23.00;95.10;;;;;;5061882;28;20040;-66
2022/07/19 06:12:43;;;;;;;12.52;3.30;;;23.10;94.20;;;;;;5060288;28;20119;-66
2022/07/19 06:15:09;;;;;;;8.93;2.97;;;23.30;94.10;;;;;;5059303;28;20566;-66
2022/07/19 06:17:34;;;;;;;7.95;3.10;;;23.40;94.70;;;;;;5061953;28;20513;-66
2022/07/19 06:20:00;;;;;;;13.88;2.90;;;23.40;94.10;;;;;;5064263;28;20032;-67
2022/07/19 06:22:30;;;;;;;8.50;2.83;;;23.60;93.90;;;;;;5062890;28;20028;-66
2022/07/19 06:24:56;;;;;;;8.07;2.58;;;23.70;94.00;;;;;;5042366;28;20053;-66
2022/07/19 06:27:22;;;;;;;7.65;2.70;;;23.70;93.60;;;;;;5061946;28;20129;-66
2022/07/19 06:29:47;;;;;;;9.32;2.90;;;23.80;93.50;;;;;;5061732;28;20101;-66
2022/07/19 06:32:13;;;;;;;6.78;2.53;;;24.00;93.30;;;;;;5060466;28;20063;-66
2022/07/19 06:34:38;;;;;;;10.52;2.97;;;24.10;93.00;;;;;;5056484;28;20399;-66
2022/07/19 06:37:05;;;;;;;8.15;2.78;;;24.30;92.70;;;;;;5063212;28;20024;-66
2022/07/19 06:39:30;;;;;;;7.78;3.05;;;24.40;93.10;;;;;;5060209;28;20146;-66
2022/07/19 06:41:56;;;;;;;9.20;2.90;;;24.50;92.50;;;;;;5062631;28;20028;-66
2022/07/19 06:44:21;;;;;;;8.15;2.92;;;24.50;92.00;;;;;;5045586;28;20032;-66
2022/07/19 06:46:47;;;;;;;10.15;3.10;;;24.60;92.20;;;;;;5064260;28;20028;-66
2022/07/19 06:49:13;;;;;;;8.13;2.80;;;24.70;92.10;;;;;;5063770;28;20033;-66
2022/07/19 06:51:38;;;;;;;7.72;2.90;;;24.80;92.10;;;;;;5064557;28;20442;-66
2022/07/19 06:54:04;;;;;;;8.10;3.10;;;24.90;91.70;;;;;;5064474;28;20028;-66
2022/07/19 06:56:30;;;;;;;10.73;2.85;;;25.10;91.40;;;;;;5063744;28;20433;-66
2022/07/19 06:58:55;;;;;;;12.18;3.28;;;25.20;91.40;;;;;;5061485;28;20055;-66
2022/07/19 07:01:21;;;;;;;9.05;2.90;;;25.40;91.30;;;;;;5063808;28;20107;-66
2022/07/19 07:03:46;;;;;;;10.15;2.80;;;25.60;91.40;;;;;;5064575;28;20333;-66
2022/07/19 07:06:13;;;;;;;9.65;2.97;;;25.60;90.50;;;;;;5049344;28;20089;-65
2022/07/19 07:08:38;;;;;;;10.73;3.17;;;25.70;90.30;;;;;;5064545;28;20020;-66
2022/07/19 07:11:04;;;;;;;7.65;3.00;;;25.80;90.50;;;;;;5064231;28;20074;-66
2022/07/19 07:13:30;;;;;;;8.68;2.70;;;26.00;90.30;;;;;;5061972;28;20032;-66
2022/07/19 07:15:55;;;;;;;8.57;2.83;;;26.20;89.30;;;;;;5064379;28;20065;-67
2022/07/19 07:18:21;;;;;;;11.43;2.90;;;26.40;88.20;;;;;;5063846;28;20021;-66
2022/07/19 07:20:47;;;;;;;8.25;2.67;;;26.50;88.40;;;;;;5060554;28;20058;-66
2022/07/19 07:23:12;;;;;;;12.05;3.17;;;26.60;88.70;;;;;;5047963;28;20236;-66
2022/07/19 07:25:38;;;;;;;12.10;3.20;;;26.70;87.10;;;;;;5049893;28;20104;-68
2022/07/19 07:28:04;;;;;;;7.43;2.72;;;26.90;87.30;;;;;;5068493;28;20031;-66
2022/07/19 07:30:29;;;;;;;7.95;2.83;;;27.10;86.50;;;;;;5067646;28;20108;-67
2022/07/19 07:32:55;;;;;;;9.88;3.00;;;27.30;86.60;;;;;;5067795;28;20040;-67
2022/07/19 07:35:21;;;;;;;12.32;3.10;;;27.40;86.70;;;;;;5049105;28;20445;-67
2022/07/19 07:37:47;;;;;;;13.43;3.58;;;27.40;85.70;;;;;;5067779;28;20261;-67
2022/07/19 07:40:12;;;;;;;8.45;2.90;;;27.70;84.30;;;;;;5066546;28;20047;-67
2022/07/19 07:42:38;;;;;;;8.50;2.88;;;27.90;84.60;;;;;;5065798;28;20064;-68
2022/07/19 07:45:04;;;;;;;9.45;3.13;;;28.10;83.80;;;;;;5068069;28;20120;-67
2022/07/19 07:47:30;;;;;;;13.75;3.03;;;28.40;83.10;;;;;;5048901;28;20021;-67
2022/07/19 07:49:55;;;;;;;10.65;3.53;;;28.40;82.70;;;;;;5067834;28;20171;-67
2022/07/19 07:52:21;;;;;;;9.23;2.90;;;28.50;82.40;;;;;;5064405;28;20115;-67
2022/07/19 07:54:48;;;;;;;8.85;3.15;;;28.70;82.10;;;;;;5067790;28;20036;-67
2022/07/19 07:57:14;;;;;;;8.82;3.30;;;28.90;82.20;;;;;;5067186;28;20020;-67
2022/07/19 07:59:39;;;;;;;8.63;3.40;;;29.00;81.00;;;;;;5067270;28;20048;-67
2022/07/19 08:02:05;;;;;;;12.98;3.47;;;29.00;80.50;;;;;;5067085;28;20107;-67
2022/07/19 08:04:31;;;;;;;14.23;3.28;;;29.00;79.90;;;;;;5066921;28;20514;-67
2022/07/19 08:06:56;;;;;;;12.32;3.40;;;29.00;79.80;;;;;;5067460;28;20104;-67
2022/07/19 08:09:22;;;;;;;8.70;2.97;;;29.10;78.60;;;;;;5048415;28;20040;-67
2022/07/19 08:11:48;;;;;;;9.23;3.30;;;29.20;78.40;;;;;;5065614;28;20051;-67
2022/07/19 08:14:13;;;;;;;12.98;3.20;;;29.30;78.00;;;;;;5067248;28;20035;-67
2022/07/19 08:16:39;;;;;;;10.02;3.47;;;29.60;77.80;;;;;;5066405;28;20020;-67
2022/07/19 08:19:05;;;;;;;12.18;3.63;;;30.10;76.70;;;;;;5067401;28;20061;-67
2022/07/19 08:21:31;;;;;;;8.00;3.13;;;30.60;76.20;;;;;;5048382;28;20087;-68
2022/07/19 08:23:56;;;;;;;10.70;2.97;;;31.10;74.60;;;;;;5067129;28;20028;-67
2022/07/19 08:26:22;;;;;;;11.02;3.20;;;31.50;73.20;;;;;;5066124;28;20518;-67
2022/07/19 08:28:48;;;;;;;11.05;3.25;;;32.00;72.00;;;;;;5067058;28;20029;-67
2022/07/19 08:31:14;;;;;;;7.63;3.13;;;32.60;72.70;;;;;;5066988;28;20040;-67
2022/07/19 08:33:40;;;;;;;12.00;3.05;;;33.00;69.90;;;;;;5045652;28;20013;-68
2022/07/19 08:36:07;;;;;;;8.85;3.15;;;33.20;69.70;;;;;;5067011;28;20048;-68
2022/07/19 08:38:32;;;;;;;10.93;3.25;;;33.40;68.40;;;;;;5066175;28;20017;-68
2022/07/19 08:41:01;;;;;;;9.85;3.15;;;33.70;68.10;;;;;;5066466;28;20028;-68
2022/07/19 08:43:27;;;;;;;8.80;3.28;;;33.80;67.40;;;;;;5064355;28;20040;-67
2022/07/19 08:45:53;;;;;;;10.90;2.92;;;34.00;65.00;;;;;;5066634;28;20031;-67
2022/07/19 08:48:20;;;;;;;8.57;2.70;;;34.20;65.60;;;;;;5065919;28;20029;-68
2022/07/19 08:50:47;;;;;;;10.52;2.92;;;34.50;64.70;;;;;;5066464;28;20034;-67
2022/07/19 08:53:14;;;;;;;8.80;2.53;;;34.80;65.00;;;;;;5066494;28;20013;-67
2022/07/19 08:55:41;;;;;;;8.13;2.47;;;34.90;64.50;;;;;;5065719;28;20020;-68
2022/07/19 08:58:06;;;;;;;8.82;2.72;;;35.10;63.50;;;;;;5066692;28;20091;-68
2022/07/19 09:00:33;;;;;;;9.55;3.30;;;35.10;64.50;;;;;;5061210;28;20052;-68
2022/07/19 09:03:04;;;;;;;6.82;2.60;;;35.20;65.60;;;;;;5066195;28;20376;-67
2022/07/19 09:05:33;;;;;;;8.23;2.60;;;35.30;60.50;;;;;;5065672;28;20026;-68
2022/07/19 09:08:15;;;;;;;10.80;2.80;;;35.40;60.50;;;;;;5066758;28;20025;-68
2022/07/19 09:13:32;;;;;;;7.72;2.53;;;35.60;61.10;;;;;;5062054;28;20039;-68
2022/07/19 09:15:58;;;;;;;6.65;2.58;;;36.10;59.70;;;;;;5063866;28;20027;-68
2022/07/19 09:18:31;;;;;;;8.02;2.55;;;36.20;58.70;;;;;;5065103;28;20227;-68
2022/07/19 09:21:05;;;;;;;9.52;2.40;;;36.40;59.10;;;;;;5061571;28;20028;-68
2022/07/19 09:23:31;;;;;;;7.35;2.65;;;36.60;58.60;;;;;;5065794;28;20372;-68
2022/07/19 09:26:02;;;;;;;8.05;2.75;;;37.00;56.70;;;;;;5065786;28;20029;-68
2022/07/19 09:28:31;;;;;;;12.77;2.63;;;36.90;57.40;;;;;;5063453;28;20042;-68
2022/07/19 09:30:58;;;;;;;13.15;2.50;;;37.10;58.10;;;;;;5065935;28;20036;-68
2022/07/19 09:33:27;;;;;;;8.43;2.60;;;36.80;56.30;;;;;;5062036;28;20056;-68
2022/07/19 09:35:59;;;;;;;9.40;3.08;;;36.60;56.70;;;;;;5065676;28;20095;-68
2022/07/19 09:38:30;;;;;;;10.35;2.90;;;36.80;55.70;;;;;;5042904;28;20033;-68
2022/07/19 09:41:13;;;;;;;11.60;2.60;;;36.90;58.20;;;;;;5065667;28;20388;-68
2022/07/19 09:43:56;;;;;;;8.95;2.88;;;37.30;57.00;;;;;;5060994;28;20130;-69
2022/07/19 09:46:33;;;;;;;8.20;2.47;;;37.80;55.10;;;;;;5064335;28;20028;-68
2022/07/19 09:49:16;;;;;;;7.30;2.28;;;37.90;54.20;;;;;;5060789;28;20431;-68
2022/07/19 09:51:47;;;;;;;7.97;2.33;;;38.10;54.40;;;;;;5059819;28;20358;-69
2022/07/19 09:54:15;;;;;;;8.15;2.20;;;38.30;51.70;;;;;;5063245;28;20455;-68
2022/07/19 09:56:43;;;;;;;7.97;2.28;;;38.30;51.90;;;;;;5065158;28;20112;-68
2022/07/19 09:59:10;;;;;;;6.88;2.15;;;38.50;53.30;;;;;;5046993;28;20051;-68
2022/07/19 10:01:37;;;;;;;8.85;2.30;;;38.40;52.00;;;;;;5065369;28;20040;-68
2022/07/19 10:04:08;;;;;;;8.13;2.25;;;38.60;51.10;;;;;;5062486;28;20152;-68
2022/07/19 10:06:34;;;;;;;6.40;2.10;;;38.80;51.40;;;;;;5046886;28;20394;-66
2022/07/19 10:09:03;;;;;;;7.32;2.15;;;38.90;52.30;;;;;;5065499;28;20084;-67
2022/07/19 10:11:30;;;;;;;7.78;1.95;;;38.50;50.90;;;;;;5063123;28;20017;-67
2022/07/19 10:13:56;;;;;;;6.03;1.90;;;38.90;53.30;;;;;;5065397;28;20497;-67
2022/07/19 10:16:29;;;;;;;7.03;1.83;;;38.60;52.20;;;;;;5065002;28;20120;-67
2022/07/19 10:19:15;;;;;;;9.38;2.20;;;39.00;52.20;;;;;;5047325;28;20043;-67
2022/07/19 10:21:41;;;;;;;7.15;2.22;;;39.10;49.80;;;;;;5062748;28;20036;-67
2022/07/19 10:24:06;;;;;;;7.43;2.28;;;39.30;51.30;;;;;;5047202;28;20452;-67
2022/07/19 10:26:40;;;;;;;10.30;2.17;;;39.90;50.10;;;;;;5064745;28;20660;-67
2022/07/19 10:29:08;;;;;;;7.70;2.17;;;40.20;49.20;;;;;;5065246;28;20071;-67
2022/07/19 10:31:38;;;;;;;6.82;2.10;;;40.20;47.70;;;;;;5032750;28;20060;-67
2022/07/19 10:34:06;;;;;;;6.25;2.35;;;40.20;47.40;;;;;;5065266;28;20036;-67
2022/07/19 10:36:58;;;;;;;;;;;40.40;47.50;;;;;;5065018;28;20078;-67
2022/07/19 10:39:36;;;;;;;6.05;1.80;;;40.20;47.70;;;;;;5030971;28;19978;-67
2022/07/19 10:42:21;;;;;;;7.55;2.00;;;40.20;46.40;;;;;;5060034;28;20033;-67
2022/07/19 10:45:04;;;;;;;7.38;1.80;;;40.40;46.10;;;;;;5064684;28;20048;-67
2022/07/19 10:47:38;;;;;;;8.40;1.98;;;40.20;46.30;;;;;;5063173;28;20049;-67
2022/07/19 10:50:06;;;;;;;7.85;1.85;;;40.30;47.20;;;;;;5041434;28;20041;-67
2022/07/19 10:52:36;;;;;;;7.20;2.00;;;40.70;48.00;;;;;;5044974;28;20031;-67
2022/07/19 10:55:22;;;;;;;5.35;1.88;;;40.00;46.30;;;;;;5065077;28;20465;-67
2022/07/19 10:57:58;;;;;;;6.10;1.90;;;39.50;47.30;;;;;;5063739;28;20043;-67
2022/07/19 11:00:26;;;;;;;6.75;2.03;;;40.00;47.00;;;;;;5068414;28;20082;-68
2022/07/19 11:03:13;;;;;;;11.38;2.05;;;40.50;47.00;;;;;;5069216;28;20040;-67
2022/07/19 11:05:46;;;;;;;6.85;2.78;;;40.40;45.60;;;;;;5067845;28;20116;-68
2022/07/19 11:08:12;;;;;;;7.85;2.33;;;40.70;45.50;;;;;;5058412;28;20073;-68
2022/07/19 11:10:38;;;;;;;9.02;2.60;;;40.90;45.80;;;;;;5067606;28;20245;-68
2022/07/19 11:13:03;;;;;;;8.57;2.25;;;40.70;45.00;;;;;;5066464;28;20076;-68
2022/07/19 11:15:29;;;;;;;6.25;2.00;;;41.00;47.20;;;;;;5064986;28;20024;-68
2022/07/19 11:18:02;;;;;;;5.13;1.92;;;41.30;45.60;;;;;;5066905;28;20159;-68
2022/07/19 11:20:33;;;;;;;7.50;2.10;;;41.20;44.80;;;;;;5064266;28;20129;-68
2022/07/19 11:23:00;;;;;;;7.45;2.08;;;41.20;45.30;;;;;;5068011;28;20031;-68
2022/07/19 11:25:31;;;;;;;6.00;1.70;;;41.80;43.50;;;;;;5067442;28;20017;-68
2022/07/19 11:27:59;;;;;;;6.97;2.00;;;42.00;45.60;;;;;;5068246;28;20013;-68
2022/07/19 11:30:26;;;;;;;9.18;2.22;;;42.30;44.30;;;;;;5067684;28;20023;-68
2022/07/19 11:32:57;;;;;;;6.00;1.83;;;42.10;44.50;;;;;;5068189;28;20080;-68
2022/07/19 11:35:23;;;;;;;6.45;2.10;;;42.00;43.30;;;;;;5067961;28;20031;-68
2022/07/19 11:37:53;;;;;;;13.77;2.20;;;41.80;43.70;;;;;;5049008;28;20111;-68
2022/07/19 11:40:19;;;;;;;5.85;1.90;;;41.90;43.50;;;;;;5048467;28;20437;-68
2022/07/19 11:42:47;;;;;;;7.93;1.95;;;42.30;43.20;;;;;;5033234;28;20025;-68
2022/07/19 11:45:21;;;;;;;6.43;2.28;;;42.50;43.40;;;;;;5068149;28;20036;-68
2022/07/19 11:47:49;;;;;;;6.55;2.03;;;42.30;43.20;;;;;;5063833;28;20081;-68
2022/07/19 11:50:17;;;;;;;6.97;2.00;;;42.60;43.60;;;;;;5066003;28;20052;-69
2022/07/19 11:52:42;;;;;;;8.30;1.92;;;42.90;43.40;;;;;;5044873;28;20496;-68
2022/07/19 11:55:09;;;;;;;7.75;2.17;;;42.20;42.40;;;;;;5067458;28;20028;-68
2022/07/19 11:57:34;;;;;;;6.80;2.00;;;43.00;42.90;;;;;;5065856;28;20492;-71
2022/07/19 12:00:00;;;;;;;7.38;2.00;;;43.30;42.50;;;;;;5067908;28;20132;-68
2022/07/19 12:02:26;;;;;;;8.10;2.20;;;43.40;43.10;;;;;;5043535;28;20043;-68
2022/07/19 12:04:51;;;;;;;6.30;1.92;;;43.90;41.10;;;;;;5049318;28;20527;-69
2022/07/19 12:07:18;;;;;;;6.25;2.00;;;43.70;40.80;;;;;;5067115;28;20017;-68
2022/07/19 12:09:45;;;;;;;5.07;2.00;;;43.70;40.60;;;;;;5066528;28;20016;-68
2022/07/19 12:12:15;;;;;;;9.10;1.95;;;43.40;40.70;;;;;;5040609;28;20345;-68
2022/07/19 12:14:41;;;;;;;9.50;2.15;;;43.60;40.30;;;;;;5065221;28;20096;-68
2022/07/19 12:17:17;;;;;;;7.55;2.15;;;42.60;40.50;;;;;;5063424;28;20143;-68
2022/07/19 12:19:48;;;;;;;9.43;1.90;;;43.40;41.50;;;;;;5064869;28;20121;-68
2022/07/19 12:22:30;;;;;;;5.82;2.00;;;43.80;40.40;;;;;;5067887;28;20359;-68
2022/07/19 12:24:56;;;;;;;5.63;1.80;;;43.90;40.30;;;;;;5062801;28;20029;-68
2022/07/19 12:27:27;;;;;;;5.38;1.92;;;44.10;40.20;;;;;;5063474;28;20025;-68
2022/07/19 12:29:54;;;;;;;7.65;2.03;;;44.30;40.60;;;;;;5065452;28;20464;-68
2022/07/19 12:32:35;;;;;;;6.15;2.40;;;44.00;41.00;;;;;;5061263;28;20028;-68
2022/07/19 12:35:09;;;;;;;7.97;2.20;;;44.40;39.60;;;;;;5063586;28;20051;-68
2022/07/19 12:37:46;;;;;;;6.20;2.10;;;44.30;39.10;;;;;;5066394;28;20527;-68
2022/07/19 12:40:14;;;;;;;7.30;1.60;;;44.10;40.60;;;;;;5061312;28;20083;-68
2022/07/19 12:42:47;;;;;;;;;;;44.80;39.30;;;;;;5064639;28;20124;-68
2022/07/19 12:45:19;;;;;;;6.55;2.33;;;44.70;40.10;;;;;;5066539;28;20197;-69
2022/07/19 12:47:45;;;;;;;9.73;2.38;;;45.30;39.70;;;;;;5066230;28;20028;-68